Pagina principale
METAR-TAF:

METAR-TAF

Aeroporti :

Aeroporto di Milano-Malpensa

Milano, Italia

latitudine: 45-37N, longitudine: 008-44E, altezza: 234 m

Osservazione

Il bollettino è stato emesso 34 minuti fa, alle 19:50 UTC
Vento 2 kt da nord
Temperature 6°C
Umidità 87%
Pressione 1028 hPa
Visibilità: 8000 m

METAR: LIMC 161950Z 01002KT 8000 NSC 06/04 Q1028 NOSIG

Ora: 21:24 (20:24 UTC)

Previsione

Il bollettino è stato emesso 3 ore e 24 minuti fa, alle 17:00 UTC
Previsione valida dal 16 alle 18 UTC al 17 alle 24 UTC
Vento 5 kt da direzioni variabili
Visibilità: 7000 m
Nubi sparse ad un'altezza di 6000 ft
Evoluzione graduale
dal 16 alle 21 UTC al 16 alle 23 UTC
Visibilità: 4000 m
foschia
Probabilità 30% :
Temporaneamente
dal 17 alle 02 UTC al 17 alle 06 UTC
Visibilità: 1200 m
banchi di nebbia
Temporaneamente
dal 17 alle 12 UTC al 17 alle 24 UTC
pioggia

TAF: LIMC 161700Z 1618/1724 VRB05KT 7000 SCT060 BECMG 1621/1623 4000 BR PROB30 TEMPO 1702/1706 1200 BCFG TEMPO 1712/1724 RA

Osservazioni e previsioni meteorologiche di più di 4000 aeroporti (messaggi METAR e TAF).

Le stazioni disponibili sono rappresentate dai dischi gialli e rossi sulla carta.

Puntare il mouse per vedere il nome della stazione.

Clicca sopra per visualizzare le osservazioni e previsioni meteorologiche.

Per cambiare la mappa : fare clic sui pulsanti verdi con una croce nera per ingrandire, il pulsante verde con un trattino per diminuire, o sulla freccia verde per le mappe adiacenti.


METAR-TAF: